sensor_id;sensor_type;location;lat;lon;timestamp;pressure;altitude;pressure_sealevel;temperature;humidity
36932;BME280;22847;42.654;23.370;2023-02-27T00:00:33;93790.25;;;13.76;50.26
36932;BME280;22847;42.654;23.370;2023-02-27T00:02:59;93779.06;;;13.89;49.61
36932;BME280;22847;42.654;23.370;2023-02-27T00:05:25;93591.81;;;13.00;48.79
36932;BME280;22847;42.654;23.370;2023-02-27T00:07:50;93778.59;;;14.21;48.96
36932;BME280;22847;42.654;23.370;2023-02-27T00:10:16;93722.75;;;13.42;50.03
36932;BME280;22847;42.654;23.370;2023-02-27T00:12:42;93605.09;;;12.83;49.72
36932;BME280;22847;42.654;23.370;2023-02-27T00:15:18;93788.66;;;14.17;49.39
36932;BME280;22847;42.654;23.370;2023-02-27T00:17:44;93469.94;;;12.12;49.33
36932;BME280;22847;42.654;23.370;2023-02-27T00:20:15;93675.88;;;13.47;49.05
36932;BME280;22847;42.654;23.370;2023-02-27T00:22:41;93793.31;;;13.65;50.78
36932;BME280;22847;42.654;23.370;2023-02-27T00:25:07;93586.47;;;12.06;51.77
36932;BME280;22847;42.654;23.370;2023-02-27T00:27:33;93792.84;;;13.55;51.05
36932;BME280;22847;42.654;23.370;2023-02-27T00:29:59;93802.75;;;12.86;52.12
36932;BME280;22847;42.654;23.370;2023-02-27T00:32:25;93567.16;;;12.07;51.51
36932;BME280;22847;42.654;23.370;2023-02-27T00:34:50;93834.06;;;13.67;50.71
36932;BME280;22847;42.654;23.370;2023-02-27T00:37:15;93617.53;;;12.31;50.59
36932;BME280;22847;42.654;23.370;2023-02-27T00:39:41;93782.44;;;13.47;50.80
36932;BME280;22847;42.654;23.370;2023-02-27T00:42:06;93600.47;;;11.76;52.57
36932;BME280;22847;42.654;23.370;2023-02-27T00:44:32;93820.09;;;12.87;53.01
36932;BME280;22847;42.654;23.370;2023-02-27T00:46:57;93765.69;;;13.12;52.05
36932;BME280;22847;42.654;23.370;2023-02-27T00:49:22;93713.28;;;12.90;51.83
36932;BME280;22847;42.654;23.370;2023-02-27T00:51:49;93770.47;;;13.08;52.51
36932;BME280;22847;42.654;23.370;2023-02-27T00:54:15;93703.63;;;12.47;53.06
36932;BME280;22847;42.654;23.370;2023-02-27T00:56:40;93807.41;;;13.28;52.00
36932;BME280;22847;42.654;23.370;2023-02-27T00:59:06;93793.56;;;13.34;51.84
36932;BME280;22847;42.654;23.370;2023-02-27T01:01:32;93763.72;;;13.14;51.88
36932;BME280;22847;42.654;23.370;2023-02-27T01:03:57;93798.06;;;12.81;53.51
36932;BME280;22847;42.654;23.370;2023-02-27T01:06:22;93795.66;;;13.24;52.40
36932;BME280;22847;42.654;23.370;2023-02-27T01:08:48;93803.06;;;13.35;52.02
36932;BME280;22847;42.654;23.370;2023-02-27T01:11:13;93778.91;;;12.66;53.37
36932;BME280;22847;42.654;23.370;2023-02-27T01:13:39;93804.53;;;12.56;54.57
36932;BME280;22847;42.654;23.370;2023-02-27T01:16:04;93801.28;;;12.83;54.01
36932;BME280;22847;42.654;23.370;2023-02-27T01:18:30;93803.16;;;13.12;53.00
36932;BME280;22847;42.654;23.370;2023-02-27T01:20:55;93805.28;;;13.38;52.39
36932;BME280;22847;42.654;23.370;2023-02-27T01:23:21;93773.72;;;13.10;52.25
36932;BME280;22847;42.654;23.370;2023-02-27T01:25:47;93823.78;;;13.51;52.08
36932;BME280;22847;42.654;23.370;2023-02-27T01:28:13;93796.28;;;13.11;53.21
36932;BME280;22847;42.654;23.370;2023-02-27T01:30:40;93843.31;;;13.34;52.47
36932;BME280;22847;42.654;23.370;2023-02-27T01:33:05;93714.72;;;12.78;52.61
36932;BME280;22847;42.654;23.370;2023-02-27T01:35:31;93789.22;;;12.68;54.04
36932;BME280;22847;42.654;23.370;2023-02-27T01:37:56;93819.44;;;12.33;55.37
36932;BME280;22847;42.654;23.370;2023-02-27T01:40:22;93805.44;;;12.26;55.99
36932;BME280;22847;42.654;23.370;2023-02-27T01:42:47;93777.72;;;12.39;54.19
36932;BME280;22847;42.654;23.370;2023-02-27T01:45:26;93837.84;;;13.06;53.45
36932;BME280;22847;42.654;23.370;2023-02-27T01:48:01;93862.00;;;13.31;52.35
36932;BME280;22847;42.654;23.370;2023-02-27T01:50:28;93865.06;;;13.34;52.39
36932;BME280;22847;42.654;23.370;2023-02-27T01:52:57;93854.00;;;13.32;52.11
36932;BME280;22847;42.654;23.370;2023-02-27T01:55:25;93852.97;;;13.33;52.08
36932;BME280;22847;42.654;23.370;2023-02-27T01:57:51;93854.00;;;12.80;53.20
36932;BME280;22847;42.654;23.370;2023-02-27T02:00:18;93778.84;;;12.60;53.27
36932;BME280;22847;42.654;23.370;2023-02-27T02:02:50;93837.13;;;12.97;53.69
36932;BME280;22847;42.654;23.370;2023-02-27T02:05:19;93810.19;;;12.22;55.45
36932;BME280;22847;42.654;23.370;2023-02-27T02:07:45;93678.75;;;11.61;54.91
36932;BME280;22847;42.654;23.370;2023-02-27T02:10:13;93869.97;;;12.85;54.35
36932;BME280;22847;42.654;23.370;2023-02-27T02:12:39;93844.09;;;12.90;53.32
36932;BME280;22847;42.654;23.370;2023-02-27T02:15:05;93884.59;;;12.94;53.84
36932;BME280;22847;42.654;23.370;2023-02-27T02:42:04;94028.47;;;12.49;70.00
36932;BME280;22847;42.654;23.370;2023-02-27T02:44:41;94054.81;;;12.70;70.07
36932;BME280;22847;42.654;23.370;2023-02-27T02:47:25;94074.72;;;12.79;70.84
36932;BME280;22847;42.654;23.370;2023-02-27T02:50:12;94072.81;;;12.73;66.86
36932;BME280;22847;42.654;23.370;2023-02-27T02:53:03;94118.34;;;12.87;68.43
36932;BME280;22847;42.654;23.370;2023-02-27T02:55:52;94122.16;;;12.37;69.77
36932;BME280;22847;42.654;23.370;2023-02-27T02:58:30;94112.97;;;11.38;74.18
36932;BME280;22847;42.654;23.370;2023-02-27T03:01:07;94084.06;;;10.99;74.17
36932;BME280;22847;42.654;23.370;2023-02-27T03:03:43;94111.31;;;10.96;75.15
36932;BME280;22847;42.654;23.370;2023-02-27T03:06:26;94083.56;;;10.71;75.97
36932;BME280;22847;42.654;23.370;2023-02-27T03:08:59;93901.78;;;9.15;77.87
36932;BME280;22847;42.654;23.370;2023-02-27T03:11:30;94067.44;;;10.17;77.40
36932;BME280;22847;42.654;23.370;2023-02-27T03:14:22;94006.47;;;10.10;76.20
36932;BME280;22847;42.654;23.370;2023-02-27T03:16:53;94106.69;;;10.74;77.75
36932;BME280;22847;42.654;23.370;2023-02-27T03:19:44;94099.25;;;11.36;75.74
36932;BME280;22847;42.654;23.370;2023-02-27T03:22:15;94088.03;;;11.51;72.46
36932;BME280;22847;42.654;23.370;2023-02-27T03:24:45;94103.34;;;11.62;72.05
36932;BME280;22847;42.654;23.370;2023-02-27T03:27:11;94052.47;;;11.34;69.65
36932;BME280;22847;42.654;23.370;2023-02-27T03:29:42;94181.19;;;11.51;67.35
36932;BME280;22847;42.654;23.370;2023-02-27T03:34:43;94001.22;;;9.68;68.23
36932;BME280;22847;42.654;23.370;2023-02-27T03:39:53;94229.66;;;11.03;67.01
36932;BME280;22847;42.654;23.370;2023-02-27T03:45:19;94202.25;;;10.91;66.70
36932;BME280;22847;42.654;23.370;2023-02-27T03:47:49;94025.50;;;9.43;67.71
36932;BME280;22847;42.654;23.370;2023-02-27T03:50:15;94213.81;;;10.81;67.60
36932;BME280;22847;42.654;23.370;2023-02-27T03:52:40;94223.84;;;11.17;66.20
36932;BME280;22847;42.654;23.370;2023-02-27T03:55:28;94249.53;;;11.38;65.09
36932;BME280;22847;42.654;23.370;2023-02-27T03:57:57;94222.28;;;11.33;65.36
36932;BME280;22847;42.654;23.370;2023-02-27T04:00:23;94213.94;;;11.21;64.78
36932;BME280;22847;42.654;23.370;2023-02-27T04:02:52;94245.81;;;11.65;64.23
36932;BME280;22847;42.654;23.370;2023-02-27T04:05:19;94073.81;;;10.31;65.21
36932;BME280;22847;42.654;23.370;2023-02-27T04:29:19;94233.06;;;9.84;68.96
36932;BME280;22847;42.654;23.370;2023-02-27T04:31:59;94246.78;;;10.30;67.95
36932;BME280;22847;42.654;23.370;2023-02-27T04:37:06;94269.41;;;10.89;65.12
36932;BME280;22847;42.654;23.370;2023-02-27T04:39:55;94327.41;;;10.83;65.10
36932;BME280;22847;42.654;23.370;2023-02-27T04:42:34;94279.69;;;10.57;65.10
36932;BME280;22847;42.654;23.370;2023-02-27T04:45:04;94139.97;;;9.61;64.61
36932;BME280;22847;42.654;23.370;2023-02-27T04:47:59;94148.63;;;9.69;64.34
36932;BME280;22847;42.654;23.370;2023-02-27T04:50:35;94022.72;;;8.75;64.64
36932;BME280;22847;42.654;23.370;2023-02-27T04:53:13;94317.13;;;10.56;64.90
36932;BME280;22847;42.654;23.370;2023-02-27T04:55:46;94363.56;;;10.78;65.30
36932;BME280;22847;42.654;23.370;2023-02-27T04:58:17;94349.16;;;10.66;65.17
36932;BME280;22847;42.654;23.370;2023-02-27T05:00:48;94214.31;;;9.81;64.36
36932;BME280;22847;42.654;23.370;2023-02-27T05:03:24;94313.66;;;10.47;64.18
36932;BME280;22847;42.654;23.370;2023-02-27T05:05:54;94326.59;;;10.31;64.68
36932;BME280;22847;42.654;23.370;2023-02-27T05:11:24;94372.38;;;10.59;64.71
36932;BME280;22847;42.654;23.370;2023-02-27T05:13:56;94341.75;;;10.36;64.06
36932;BME280;22847;42.654;23.370;2023-02-27T05:17:03;94405.00;;;10.63;64.32
36932;BME280;22847;42.654;23.370;2023-02-27T05:19:31;94422.53;;;10.71;63.83
36932;BME280;22847;42.654;23.370;2023-02-27T05:22:12;94217.72;;;9.64;63.34
36932;BME280;22847;42.654;23.370;2023-02-27T05:29:52;94446.88;;;10.80;63.26
36932;BME280;22847;42.654;23.370;2023-02-27T05:37:37;94374.66;;;10.19;64.74
36932;BME280;22847;42.654;23.370;2023-02-27T05:40:07;94419.56;;;10.48;64.43
36932;BME280;22847;42.654;23.370;2023-02-27T05:42:38;94403.38;;;10.62;63.60
36932;BME280;22847;42.654;23.370;2023-02-27T05:45:10;94254.09;;;9.73;63.35
36932;BME280;22847;42.654;23.370;2023-02-27T05:47:40;94419.28;;;10.77;62.58
36932;BME280;22847;42.654;23.370;2023-02-27T05:50:12;94460.03;;;10.96;62.57
36932;BME280;22847;42.654;23.370;2023-02-27T05:52:39;94376.13;;;10.57;63.30
36932;BME280;22847;42.654;23.370;2023-02-27T05:55:11;94433.47;;;11.00;63.07
36932;BME280;22847;42.654;23.370;2023-02-27T05:57:44;94393.97;;;10.95;62.72
36932;BME280;22847;42.654;23.370;2023-02-27T06:00:34;94438.81;;;11.16;62.33
36932;BME280;22847;42.654;23.370;2023-02-27T06:03:01;94412.88;;;10.89;61.42
36932;BME280;22847;42.654;23.370;2023-02-27T06:05:26;94448.25;;;11.17;61.93
36932;BME280;22847;42.654;23.370;2023-02-27T06:07:52;94255.69;;;10.10;61.15
36932;BME280;22847;42.654;23.370;2023-02-27T06:10:19;94486.28;;;11.46;60.97
36932;BME280;22847;42.654;23.370;2023-02-27T06:12:45;94469.81;;;11.19;60.90
36932;BME280;22847;42.654;23.370;2023-02-27T06:15:11;94421.09;;;11.28;60.89
36932;BME280;22847;42.654;23.370;2023-02-27T06:17:37;94485.22;;;11.82;59.33
36932;BME280;22847;42.654;23.370;2023-02-27T06:20:04;94465.41;;;12.14;58.83
36932;BME280;22847;42.654;23.370;2023-02-27T06:22:31;94317.94;;;11.58;58.10
36932;BME280;22847;42.654;23.370;2023-02-27T06:24:57;94301.97;;;11.69;57.42
36932;BME280;22847;42.654;23.370;2023-02-27T06:27:22;94492.66;;;12.69;56.89
36932;BME280;22847;42.654;23.370;2023-02-27T06:29:47;94477.63;;;12.87;56.65
36932;BME280;22847;42.654;23.370;2023-02-27T06:32:13;94468.63;;;12.90;56.01
36932;BME280;22847;42.654;23.370;2023-02-27T06:34:38;94337.75;;;11.77;55.40
36932;BME280;22847;42.654;23.370;2023-02-27T06:37:04;94444.88;;;12.43;55.72
36932;BME280;22847;42.654;23.370;2023-02-27T06:39:29;94453.38;;;12.45;56.17
36932;BME280;22847;42.654;23.370;2023-02-27T06:41:54;94508.66;;;12.58;55.76
36932;BME280;22847;42.654;23.370;2023-02-27T06:44:20;94516.16;;;12.45;55.85
36932;BME280;22847;42.654;23.370;2023-02-27T06:49:30;94283.81;;;11.01;56.28
36932;BME280;22847;42.654;23.370;2023-02-27T06:51:55;94502.88;;;11.88;57.07
36932;BME280;22847;42.654;23.370;2023-02-27T06:54:21;94493.19;;;12.15;56.96
36932;BME280;22847;42.654;23.370;2023-02-27T06:56:47;94493.69;;;12.18;57.36
36932;BME280;22847;42.654;23.370;2023-02-27T06:59:12;94509.44;;;11.92;57.84
36932;BME280;22847;42.654;23.370;2023-02-27T07:01:38;94470.28;;;12.08;56.89
36932;BME280;22847;42.654;23.370;2023-02-27T07:04:03;94285.09;;;10.97;57.17
36932;BME280;22847;42.654;23.370;2023-02-27T07:06:29;94500.13;;;12.48;56.67
36932;BME280;22847;42.654;23.370;2023-02-27T07:08:54;94492.38;;;13.29;54.59
36932;BME280;22847;42.654;23.370;2023-02-27T07:11:19;94486.88;;;14.26;52.21
36932;BME280;22847;42.654;23.370;2023-02-27T07:13:45;94486.16;;;14.94;50.29
36932;BME280;22847;42.654;23.370;2023-02-27T07:16:10;94479.84;;;15.40;49.10
36932;BME280;22847;42.654;23.370;2023-02-27T07:18:35;94454.09;;;15.21;49.32
36932;BME280;22847;42.654;23.370;2023-02-27T07:21:01;94326.19;;;14.92;47.65
36932;BME280;22847;42.654;23.370;2023-02-27T07:23:26;94501.34;;;16.11;46.28
36932;BME280;22847;42.654;23.370;2023-02-27T07:25:51;94517.28;;;16.38;45.43
36932;BME280;22847;42.654;23.370;2023-02-27T07:28:17;94509.78;;;16.71;45.03
36932;BME280;22847;42.654;23.370;2023-02-27T07:30:43;94507.38;;;16.26;45.86
36932;BME280;22847;42.654;23.370;2023-02-27T07:33:09;94507.50;;;16.03;45.93
36932;BME280;22847;42.654;23.370;2023-02-27T07:35:35;94366.22;;;15.24;45.42
36932;BME280;22847;42.654;23.370;2023-02-27T07:38:00;94535.63;;;15.88;45.56
36932;BME280;22847;42.654;23.370;2023-02-27T07:40:26;94508.56;;;15.65;46.20
36932;BME280;22847;42.654;23.370;2023-02-27T07:42:51;94521.00;;;16.00;46.25
36932;BME280;22847;42.654;23.370;2023-02-27T07:45:16;94521.72;;;15.42;47.16
36932;BME280;22847;42.654;23.370;2023-02-27T07:47:46;94325.25;;;14.70;46.40
36932;BME280;22847;42.654;23.370;2023-02-27T07:50:12;94483.09;;;15.94;45.22
36932;BME280;22847;42.654;23.370;2023-02-27T07:52:41;94410.56;;;15.85;44.39
36932;BME280;22847;42.654;23.370;2023-02-27T07:55:09;94328.28;;;15.70;44.19
36932;BME280;22847;42.654;23.370;2023-02-27T07:57:35;94353.47;;;15.94;43.56
36932;BME280;22847;42.654;23.370;2023-02-27T08:00:02;94489.06;;;16.83;43.01
36932;BME280;22847;42.654;23.370;2023-02-27T08:02:28;94500.75;;;16.59;42.78
36932;BME280;22847;42.654;23.370;2023-02-27T08:04:53;94357.09;;;15.49;44.01
36932;BME280;22847;42.654;23.370;2023-02-27T08:07:18;94517.81;;;15.90;45.55
36932;BME280;22847;42.654;23.370;2023-02-27T08:09:44;94509.88;;;15.98;44.30
36932;BME280;22847;42.654;23.370;2023-02-27T08:12:09;94503.13;;;15.81;44.82
36932;BME280;22847;42.654;23.370;2023-02-27T08:14:35;94394.00;;;15.70;43.90
36932;BME280;22847;42.654;23.370;2023-02-27T08:17:00;94532.91;;;16.25;44.16
36932;BME280;22847;42.654;23.370;2023-02-27T08:19:26;94400.34;;;15.61;44.35
36932;BME280;22847;42.654;23.370;2023-02-27T08:21:51;94519.44;;;16.49;42.83
36932;BME280;22847;42.654;23.370;2023-02-27T08:24:16;94386.41;;;15.75;42.89
36932;BME280;22847;42.654;23.370;2023-02-27T08:26:42;94539.38;;;17.30;42.36
36932;BME280;22847;42.654;23.370;2023-02-27T08:29:07;94533.38;;;17.36;41.75
36932;BME280;22847;42.654;23.370;2023-02-27T08:31:33;94518.75;;;17.13;41.65
36932;BME280;22847;42.654;23.370;2023-02-27T08:33:59;94401.44;;;16.17;43.07
36932;BME280;22847;42.654;23.370;2023-02-27T08:36:24;94414.84;;;16.73;42.91
36932;BME280;22847;42.654;23.370;2023-02-27T08:38:49;94414.41;;;16.33;42.50
36932;BME280;22847;42.654;23.370;2023-02-27T08:41:15;94514.47;;;17.12;42.24
36932;BME280;22847;42.654;23.370;2023-02-27T08:43:40;94526.16;;;17.24;42.22
36932;BME280;22847;42.654;23.370;2023-02-27T08:46:06;94512.91;;;17.17;41.99
36932;BME280;22847;42.654;23.370;2023-02-27T08:48:31;94536.81;;;16.29;42.90
36932;BME280;22847;42.654;23.370;2023-02-27T08:50:57;94439.59;;;15.92;43.18
36932;BME280;22847;42.654;23.370;2023-02-27T08:53:22;94533.97;;;16.45;42.89
36932;BME280;22847;42.654;23.370;2023-02-27T08:55:48;94541.16;;;17.23;43.04
36932;BME280;22847;42.654;23.370;2023-02-27T08:58:15;94529.00;;;17.65;42.66
36932;BME280;22847;42.654;23.370;2023-02-27T09:00:41;94551.53;;;18.29;42.16
36932;BME280;22847;42.654;23.370;2023-02-27T09:03:06;94565.13;;;18.26;40.37
36932;BME280;22847;42.654;23.370;2023-02-27T09:05:31;94560.84;;;18.25;39.91
36932;BME280;22847;42.654;23.370;2023-02-27T09:08:02;94590.88;;;18.18;40.41
36932;BME280;22847;42.654;23.370;2023-02-27T09:10:29;94563.13;;;18.01;41.34
36932;BME280;22847;42.654;23.370;2023-02-27T09:12:55;94514.53;;;17.61;42.20
36932;BME280;22847;42.654;23.370;2023-02-27T09:15:20;94563.72;;;17.96;41.14
36932;BME280;22847;42.654;23.370;2023-02-27T09:17:46;94596.16;;;17.69;41.74
36932;BME280;22847;42.654;23.370;2023-02-27T09:20:11;94556.19;;;17.08;42.17
36932;BME280;22847;42.654;23.370;2023-02-27T09:22:37;94573.06;;;16.78;43.54
36932;BME280;22847;42.654;23.370;2023-02-27T09:25:03;94565.00;;;16.79;43.82
36932;BME280;22847;42.654;23.370;2023-02-27T09:27:29;94573.06;;;16.48;44.25
36932;BME280;22847;42.654;23.370;2023-02-27T09:29:54;94564.88;;;16.87;43.49
36932;BME280;22847;42.654;23.370;2023-02-27T09:32:21;94537.34;;;16.90;42.85
36932;BME280;22847;42.654;23.370;2023-02-27T09:34:47;94570.72;;;17.82;42.79
36932;BME280;22847;42.654;23.370;2023-02-27T09:37:12;94565.53;;;17.96;41.39
36932;BME280;22847;42.654;23.370;2023-02-27T09:39:37;94381.13;;;15.60;43.15
36932;BME280;22847;42.654;23.370;2023-02-27T09:42:22;94563.94;;;16.59;44.70
36932;BME280;22847;42.654;23.370;2023-02-27T09:44:53;94571.84;;;16.95;44.50
36932;BME280;22847;42.654;23.370;2023-02-27T09:47:24;94532.84;;;16.84;43.51
36932;BME280;22847;42.654;23.370;2023-02-27T09:50:00;94439.03;;;16.11;44.67
36932;BME280;22847;42.654;23.370;2023-02-27T09:52:28;94571.34;;;16.56;44.81
36932;BME280;22847;42.654;23.370;2023-02-27T09:54:54;94572.63;;;16.16;45.44
36932;BME280;22847;42.654;23.370;2023-02-27T09:57:43;94620.97;;;16.15;44.90
36932;BME280;22847;42.654;23.370;2023-02-27T10:08:37;94421.88;;;16.00;44.41
36932;BME280;22847;42.654;23.370;2023-02-27T10:11:08;94589.06;;;17.12;43.80
36932;BME280;22847;42.654;23.370;2023-02-27T10:16:09;94594.00;;;17.36;43.61
36932;BME280;22847;42.654;23.370;2023-02-27T10:19:13;94588.84;;;17.71;43.38
36932;BME280;22847;42.654;23.370;2023-02-27T10:21:39;94446.78;;;16.34;44.24
36932;BME280;22847;42.654;23.370;2023-02-27T10:24:33;94601.88;;;16.79;45.22
36932;BME280;22847;42.654;23.370;2023-02-27T10:27:02;94559.34;;;16.97;44.12
36932;BME280;22847;42.654;23.370;2023-02-27T10:29:36;94608.69;;;17.24;43.74
36932;BME280;22847;42.654;23.370;2023-02-27T10:32:21;94427.47;;;16.27;43.49
36932;BME280;22847;42.654;23.370;2023-02-27T10:35:09;94571.00;;;17.09;44.42
36932;BME280;22847;42.654;23.370;2023-02-27T10:37:47;94586.00;;;17.09;44.81
36932;BME280;22847;42.654;23.370;2023-02-27T10:40:14;94579.72;;;17.10;44.21
36932;BME280;22847;42.654;23.370;2023-02-27T10:42:40;94583.44;;;16.35;45.87
36932;BME280;22847;42.654;23.370;2023-02-27T10:45:11;94428.84;;;15.49;45.96
36932;BME280;22847;42.654;23.370;2023-02-27T10:47:39;94294.69;;;14.40;46.69
36932;BME280;22847;42.654;23.370;2023-02-27T10:50:22;94603.66;;;16.20;46.11
36932;BME280;22847;42.654;23.370;2023-02-27T10:52:50;94608.66;;;16.44;46.00
36932;BME280;22847;42.654;23.370;2023-02-27T10:55:21;94603.50;;;16.51;46.27
36932;BME280;22847;42.654;23.370;2023-02-27T10:57:47;94539.22;;;16.31;46.38
36932;BME280;22847;42.654;23.370;2023-02-27T11:02:53;94596.31;;;16.45;46.49
36932;BME280;22847;42.654;23.370;2023-02-27T11:05:30;94630.13;;;15.67;48.12
36932;BME280;22847;42.654;23.370;2023-02-27T11:08:12;94550.44;;;15.81;48.89
36932;BME280;22847;42.654;23.370;2023-02-27T11:11:26;94577.97;;;16.22;47.88
36932;BME280;22847;42.654;23.370;2023-02-27T11:13:43;94524.47;;;16.15;46.79
36932;BME280;22847;42.654;23.370;2023-02-27T11:16:14;94527.44;;;16.27;46.48
36932;BME280;22847;42.654;23.370;2023-02-27T11:18:43;94590.53;;;16.79;46.14
36932;BME280;22847;42.654;23.370;2023-02-27T11:23:34;94582.63;;;17.57;45.09
36932;BME280;22847;42.654;23.370;2023-02-27T11:26:15;94556.88;;;17.80;44.75
36932;BME280;22847;42.654;23.370;2023-02-27T11:28:42;94558.75;;;17.59;44.42
36932;BME280;22847;42.654;23.370;2023-02-27T11:31:21;94552.44;;;17.38;45.32
36932;BME280;22847;42.654;23.370;2023-02-27T11:33:53;94551.69;;;17.23;45.09
36932;BME280;22847;42.654;23.370;2023-02-27T11:36:20;94436.97;;;16.42;45.61
36932;BME280;22847;42.654;23.370;2023-02-27T11:38:51;94551.81;;;17.36;44.90
36932;BME280;22847;42.654;23.370;2023-02-27T11:41:17;94552.94;;;17.49;44.64
36932;BME280;22847;42.654;23.370;2023-02-27T11:43:49;94563.91;;;17.52;45.51
36932;BME280;22847;42.654;23.370;2023-02-27T11:46:21;94520.22;;;17.15;45.25
36932;BME280;22847;42.654;23.370;2023-02-27T11:52:22;94618.00;;;16.91;46.72
36932;BME280;22847;42.654;23.370;2023-02-27T11:54:56;94531.53;;;16.59;46.54
36932;BME280;22847;42.654;23.370;2023-02-27T11:57:26;94555.13;;;16.52;47.58
36932;BME280;22847;42.654;23.370;2023-02-27T12:00:23;94473.13;;;15.90;47.51
36932;BME280;22847;42.654;23.370;2023-02-27T12:03:26;94553.09;;;16.39;47.67
36932;BME280;22847;42.654;23.370;2023-02-27T12:05:56;94544.28;;;16.76;47.87
36932;BME280;22847;42.654;23.370;2023-02-27T12:09:02;94544.50;;;16.45;48.40
36932;BME280;22847;42.654;23.370;2023-02-27T12:11:30;94563.75;;;16.61;48.56
36932;BME280;22847;42.654;23.370;2023-02-27T12:14:17;94520.59;;;16.76;48.34
36932;BME280;22847;42.654;23.370;2023-02-27T12:16:50;94551.34;;;17.12;46.44
36932;BME280;22847;42.654;23.370;2023-02-27T12:19:29;94380.53;;;15.94;46.44
36932;BME280;22847;42.654;23.370;2023-02-27T12:22:01;94550.78;;;17.16;45.93
36932;BME280;22847;42.654;23.370;2023-02-27T12:24:38;94522.66;;;16.81;46.40
36932;BME280;22847;42.654;23.370;2023-02-27T12:30:13;94551.84;;;16.79;46.25
36932;BME280;22847;42.654;23.370;2023-02-27T12:33:07;94556.88;;;16.95;46.06
36932;BME280;22847;42.654;23.370;2023-02-27T12:35:34;94522.19;;;16.92;45.96
36932;BME280;22847;42.654;23.370;2023-02-27T12:38:00;94528.59;;;17.04;46.63
36932;BME280;22847;42.654;23.370;2023-02-27T12:43:17;94532.88;;;17.26;46.61
36932;BME280;22847;42.654;23.370;2023-02-27T12:51:13;94553.50;;;17.44;46.11
36932;BME280;22847;42.654;23.370;2023-02-27T12:54:18;94548.66;;;16.84;46.50
36932;BME280;22847;42.654;23.370;2023-02-27T13:02:49;94544.47;;;17.32;46.16
36932;BME280;22847;42.654;23.370;2023-02-27T13:06:36;94520.56;;;16.91;45.92
36932;BME280;22847;42.654;23.370;2023-02-27T13:09:04;94541.63;;;16.91;46.68
36932;BME280;22847;42.654;23.370;2023-02-27T13:17:13;94544.78;;;16.65;47.60
36932;BME280;22847;42.654;23.370;2023-02-27T13:24:44;94555.63;;;16.77;48.04
36932;BME280;22847;42.654;23.370;2023-02-27T13:27:15;94506.72;;;16.68;47.83
36932;BME280;22847;42.654;23.370;2023-02-27T13:29:51;94534.69;;;16.69;48.55
36932;BME280;22847;42.654;23.370;2023-02-27T13:32:32;94498.94;;;16.30;49.42
36932;BME280;22847;42.654;23.370;2023-02-27T13:35:19;94564.44;;;16.55;50.04
36932;BME280;22847;42.654;23.370;2023-02-27T13:38:01;94532.75;;;16.77;48.79
36932;BME280;22847;42.654;23.370;2023-02-27T13:40:31;94484.41;;;16.49;48.51
36932;BME280;22847;42.654;23.370;2023-02-27T13:45:54;94532.06;;;15.95;51.57
36932;BME280;22847;42.654;23.370;2023-02-27T13:48:37;94524.97;;;15.81;52.21
36932;BME280;22847;42.654;23.370;2023-02-27T13:51:08;94337.22;;;14.50;52.30
36932;BME280;22847;42.654;23.370;2023-02-27T13:53:35;94551.09;;;15.83;51.63
36932;BME280;22847;42.654;23.370;2023-02-27T13:56:33;94562.13;;;15.63;52.30
36932;BME280;22847;42.654;23.370;2023-02-27T14:01:53;94557.97;;;15.46;52.74
36932;BME280;22847;42.654;23.370;2023-02-27T14:04:21;94553.41;;;15.17;53.19
36932;BME280;22847;42.654;23.370;2023-02-27T14:06:49;94380.63;;;14.30;52.91
36932;BME280;22847;42.654;23.370;2023-02-27T14:09:18;94550.00;;;14.86;52.75
36932;BME280;22847;42.654;23.370;2023-02-27T14:11:57;94582.75;;;14.76;53.29
36932;BME280;22847;42.654;23.370;2023-02-27T14:14:53;94565.81;;;14.47;54.64
36932;BME280;22847;42.654;23.370;2023-02-27T14:20:02;94441.59;;;13.54;54.51
36932;BME280;22847;42.654;23.370;2023-02-27T14:22:36;94606.97;;;14.47;54.58
36932;BME280;22847;42.654;23.370;2023-02-27T14:27:50;94558.72;;;14.01;54.23
36932;BME280;22847;42.654;23.370;2023-02-27T14:30:29;94600.97;;;14.22;53.84
36932;BME280;22847;42.654;23.370;2023-02-27T14:33:00;94597.38;;;14.07;54.27
36932;BME280;22847;42.654;23.370;2023-02-27T14:35:27;94551.94;;;13.67;54.38
36932;BME280;22847;42.654;23.370;2023-02-27T14:37:53;94561.91;;;13.72;54.21
36932;BME280;22847;42.654;23.370;2023-02-27T14:40:25;94601.38;;;13.62;54.94
36932;BME280;22847;42.654;23.370;2023-02-27T14:42:54;94612.50;;;13.72;54.82
36932;BME280;22847;42.654;23.370;2023-02-27T14:45:22;94629.88;;;13.57;55.19
36932;BME280;22847;42.654;23.370;2023-02-27T14:47:49;94257.03;;;11.41;54.48
36932;BME280;22847;42.654;23.370;2023-02-27T14:50:30;94643.78;;;13.50;55.25
36932;BME280;22847;42.654;23.370;2023-02-27T14:52:58;94625.13;;;13.36;55.25
36932;BME280;22847;42.654;23.370;2023-02-27T14:55:32;94659.13;;;13.28;55.68
36932;BME280;22847;42.654;23.370;2023-02-27T14:58:08;94532.81;;;12.52;56.04
36932;BME280;22847;42.654;23.370;2023-02-27T15:00:35;94635.03;;;13.09;56.47
36932;BME280;22847;42.654;23.370;2023-02-27T15:03:17;94666.00;;;13.21;56.73
36932;BME280;22847;42.654;23.370;2023-02-27T15:05:43;94621.59;;;13.04;56.47
36932;BME280;22847;42.654;23.370;2023-02-27T15:08:18;94666.84;;;13.30;56.62
36932;BME280;22847;42.654;23.370;2023-02-27T15:10:45;94666.72;;;12.97;57.76
36932;BME280;22847;42.654;23.370;2023-02-27T15:13:32;94449.63;;;11.55;59.41
36932;BME280;22847;42.654;23.370;2023-02-27T15:18:51;94720.06;;;12.63;63.45
36932;BME280;22847;42.654;23.370;2023-02-27T15:21:20;94515.69;;;11.48;63.81
36932;BME280;22847;42.654;23.370;2023-02-27T15:24:20;94684.97;;;12.47;64.45